createdAt,value
2022-09-01T00:01:00.347Z,21.49
2022-09-01T00:04:05.947Z,21.39
2022-09-01T00:07:09.005Z,21.34
2022-09-01T00:10:11.547Z,21.23
2022-09-01T00:13:14.502Z,21.18
2022-09-01T00:16:18.842Z,21.06
2022-09-01T00:19:25.738Z,20.93
2022-09-01T00:22:34.064Z,20.88
2022-09-01T00:25:37.233Z,20.78
2022-09-01T00:28:40.445Z,20.71
2022-09-01T00:31:43.675Z,20.69
2022-09-01T00:34:46.837Z,20.59
2022-09-01T00:37:49.743Z,20.57
2022-09-01T00:40:53.422Z,20.50
2022-09-01T00:43:58.888Z,20.43
2022-09-01T00:47:02.675Z,20.45
2022-09-01T00:50:06.628Z,20.41
2022-09-01T00:53:10.651Z,20.36
2022-09-01T00:56:14.114Z,20.24
2022-09-01T00:59:18.977Z,20.15
2022-09-01T01:02:23.174Z,20.13
2022-09-01T01:05:34.024Z,20.08
2022-09-01T01:08:39.328Z,20.04
2022-09-01T01:11:45.353Z,20.08
2022-09-01T01:14:52.490Z,19.99
2022-09-01T01:17:55.797Z,19.96
2022-09-01T01:21:25.516Z,19.95
2022-09-01T01:24:29.810Z,19.90
2022-09-01T01:27:38.099Z,19.86
2022-09-01T01:30:51.155Z,19.84
2022-09-01T01:33:55.383Z,19.84
2022-09-01T01:36:59.958Z,19.82
2022-09-01T01:40:03.077Z,19.83
2022-09-01T01:43:05.921Z,19.82
2022-09-01T01:46:10.164Z,19.74
2022-09-01T01:49:14.956Z,19.71
2022-09-01T01:52:20.730Z,19.67
2022-09-01T01:55:30.786Z,19.67
2022-09-01T01:58:34.887Z,19.63
2022-09-01T02:01:43.141Z,19.66
2022-09-01T02:04:45.922Z,19.59
2022-09-01T02:07:48.905Z,19.58
2022-09-01T02:10:53.706Z,19.57
2022-09-01T02:13:57.274Z,19.55
2022-09-01T02:17:03.722Z,19.61
2022-09-01T02:20:06.453Z,19.54
2022-09-01T02:23:11.724Z,19.49
2022-09-01T02:26:16.870Z,19.52
2022-09-01T02:29:22.180Z,19.45
2022-09-01T02:32:24.460Z,19.44
2022-09-01T02:35:37.910Z,19.37
2022-09-01T02:38:45.867Z,19.30
2022-09-01T02:41:49.396Z,19.31
2022-09-01T02:44:56.786Z,19.31
2022-09-01T02:47:59.604Z,19.28
2022-09-01T02:51:06.838Z,19.21
2022-09-01T02:54:10.643Z,19.20
2022-09-01T02:57:23.418Z,19.23
2022-09-01T03:00:31.572Z,19.10
2022-09-01T03:03:35.822Z,19.07
2022-09-01T03:06:39.135Z,19.10
2022-09-01T03:09:42.968Z,19.12
2022-09-01T03:12:45.698Z,19.12
2022-09-01T03:15:50.887Z,19.09
2022-09-01T03:18:53.702Z,19.18
2022-09-01T03:21:59.395Z,19.01
2022-09-01T03:25:02.338Z,18.98
2022-09-01T03:28:05.508Z,18.98
2022-09-01T03:31:09.065Z,18.90
2022-09-01T03:34:12.439Z,18.88
2022-09-01T03:37:16.366Z,18.78
2022-09-01T03:40:19.117Z,18.80
2022-09-01T03:43:24.989Z,18.78
2022-09-01T03:46:34.238Z,18.78
2022-09-01T03:49:39.428Z,18.71
2022-09-01T03:52:42.039Z,18.66
2022-09-01T03:55:46.258Z,18.68
2022-09-01T03:58:48.929Z,18.65
2022-09-01T04:01:52.084Z,18.60
2022-09-01T04:04:55.659Z,18.68
2022-09-01T04:08:01.043Z,18.71
2022-09-01T04:11:09.920Z,18.75
2022-09-01T04:14:12.819Z,18.75
2022-09-01T04:17:34.528Z,18.64
2022-09-01T04:20:48.278Z,18.63
2022-09-01T04:23:51.575Z,18.65
2022-09-01T04:26:54.969Z,18.71
2022-09-01T04:29:57.982Z,18.67
2022-09-01T04:33:01.607Z,18.64
2022-09-01T04:36:07.656Z,18.58
2022-09-01T04:39:12.407Z,18.68
2022-09-01T04:42:16.377Z,18.64
2022-09-01T04:45:25.300Z,18.63
2022-09-01T04:48:28.507Z,18.62
2022-09-01T04:51:32.486Z,18.61
2022-09-01T04:54:37.522Z,18.47
2022-09-01T04:57:42.414Z,18.52
2022-09-01T05:00:48.272Z,18.49
2022-09-01T05:04:01.383Z,18.41
2022-09-01T05:07:08.486Z,18.39
2022-09-01T05:10:11.182Z,18.44
2022-09-01T05:13:17.557Z,18.42
2022-09-01T05:16:25.212Z,18.46
2022-09-01T05:19:30.980Z,18.47
2022-09-01T05:22:33.907Z,18.43
2022-09-01T05:25:39.742Z,18.42
2022-09-01T05:28:46.151Z,18.42
2022-09-01T05:31:50.671Z,18.39
2022-09-01T05:34:54.566Z,18.36
2022-09-01T05:37:58.694Z,18.38
2022-09-01T05:41:03.663Z,18.30
2022-09-01T05:44:09.692Z,18.26
2022-09-01T05:47:20.599Z,18.29
2022-09-01T05:50:24.355Z,18.29
2022-09-01T05:53:28.880Z,18.33
2022-09-01T05:56:31.605Z,18.35
2022-09-01T05:59:34.170Z,18.37
2022-09-01T06:02:37.823Z,18.39
2022-09-01T06:05:40.960Z,18.39
2022-09-01T06:08:46.722Z,18.36
2022-09-01T06:11:50.475Z,18.30
2022-09-01T06:14:53.916Z,18.35
2022-09-01T06:17:57.736Z,18.34
2022-09-01T06:21:00.201Z,18.41
2022-09-01T06:24:04.573Z,18.56
2022-09-01T06:27:09.815Z,18.60
2022-09-01T06:30:23.073Z,18.66
2022-09-01T06:33:26.407Z,18.67
2022-09-01T06:36:35.077Z,18.68
2022-09-01T06:39:37.702Z,18.71
2022-09-01T06:42:41.275Z,18.76
2022-09-01T06:45:45.209Z,18.56
2022-09-01T06:48:48.332Z,18.57
2022-09-01T06:51:51.889Z,18.56
2022-09-01T06:54:58.163Z,18.68
2022-09-01T06:58:04.832Z,18.75
2022-09-01T07:01:15.418Z,18.84
2022-09-01T07:04:20.266Z,18.89
2022-09-01T07:14:17.489Z,19.06
2022-09-01T07:17:23.680Z,19.17
2022-09-01T07:20:29.123Z,19.25
2022-09-01T07:23:46.224Z,19.28
2022-09-01T07:26:53.467Z,19.41
2022-09-01T07:29:57.637Z,19.41
2022-09-01T07:36:27.152Z,19.55
2022-09-01T07:43:12.783Z,19.82
2022-09-01T07:46:40.782Z,19.97
2022-09-01T07:53:08.582Z,20.24
2022-09-01T07:56:12.306Z,20.45
2022-09-01T07:59:15.797Z,20.44
2022-09-01T08:02:21.238Z,20.42
2022-09-01T08:05:27.104Z,20.40
2022-09-01T08:08:29.744Z,20.42
2022-09-01T08:11:58.602Z,20.43
2022-09-01T08:18:20.087Z,20.44
2022-09-01T08:21:23.571Z,20.43
2022-09-01T08:24:29.375Z,20.51
2022-09-01T08:27:33.376Z,20.66
2022-09-01T08:30:38.087Z,20.62
2022-09-01T08:33:41.860Z,20.69
2022-09-01T08:36:45.004Z,20.77
2022-09-01T08:39:48.721Z,20.86
2022-09-01T08:42:51.560Z,20.94
2022-09-01T08:45:56.800Z,21.10
2022-09-01T08:52:30.673Z,21.33
2022-09-01T08:55:40.705Z,21.53
2022-09-01T08:58:44.399Z,21.74
2022-09-01T09:02:00.495Z,21.94
2022-09-01T09:05:21.881Z,22.13
2022-09-01T09:08:40.741Z,22.49
2022-09-01T09:11:55.474Z,22.62
2022-09-01T09:15:03.201Z,22.75
2022-09-01T09:18:39.954Z,22.86
2022-09-01T09:21:44.943Z,22.94
2022-09-01T09:24:52.546Z,22.85
2022-09-01T09:28:01.559Z,22.94
2022-09-01T09:31:23.087Z,23.01
2022-09-01T09:34:29.033Z,23.03
2022-09-01T09:37:31.614Z,23.03
2022-09-01T09:40:53.232Z,23.04
2022-09-01T09:44:23.104Z,23.06
2022-09-01T09:47:43.603Z,23.04
2022-09-01T09:50:46.836Z,23.18
2022-09-01T09:53:49.558Z,23.34
2022-09-01T09:57:14.412Z,23.59
2022-09-01T10:00:44.773Z,23.88
2022-09-01T10:03:49.471Z,24.03
2022-09-01T10:06:54.340Z,24.32
2022-09-01T10:10:00.356Z,24.51
2022-09-01T10:13:03.732Z,24.59
2022-09-01T10:16:15.758Z,24.59
2022-09-01T10:19:25.196Z,24.70
2022-09-01T10:22:27.850Z,24.91
2022-09-01T10:25:33.217Z,24.87
2022-09-01T10:28:41.247Z,25.02
2022-09-01T10:32:14.787Z,25.19
2022-09-01T10:35:19.906Z,25.69
2022-09-01T10:38:27.141Z,26.55
2022-09-01T10:41:45.018Z,27.08
2022-09-01T10:44:57.831Z,27.45
2022-09-01T10:48:30.479Z,28.12
2022-09-01T10:51:38.788Z,28.73
2022-09-01T10:54:57.275Z,28.90
2022-09-01T11:01:48.293Z,29.16
2022-09-01T11:04:51.688Z,28.92
2022-09-01T11:08:03.083Z,29.11
2022-09-01T11:11:22.725Z,29.88
2022-09-01T11:14:27.157Z,30.46
2022-09-01T11:17:49.643Z,30.82
2022-09-01T11:20:52.730Z,30.71
2022-09-01T11:24:14.266Z,30.93
2022-09-01T11:27:37.343Z,30.88
2022-09-01T11:30:55.273Z,30.86
2022-09-01T11:34:03.887Z,30.92
2022-09-01T11:37:12.286Z,30.50
2022-09-01T11:40:20.517Z,30.28
2022-09-01T11:43:23.400Z,30.46
2022-09-01T11:46:36.194Z,30.53
2022-09-01T11:49:48.330Z,30.39
2022-09-01T11:53:04.492Z,30.89
2022-09-01T11:56:13.508Z,31.08
2022-09-01T11:59:30.209Z,31.11
2022-09-01T12:02:36.799Z,31.17
2022-09-01T12:05:40.455Z,30.73
2022-09-01T12:08:51.544Z,30.43
2022-09-01T12:11:54.540Z,30.42
2022-09-01T12:15:06.662Z,30.65
2022-09-01T12:18:29.661Z,31.05
2022-09-01T12:21:32.108Z,31.02
2022-09-01T12:24:35.501Z,31.05
2022-09-01T12:27:37.989Z,31.25
2022-09-01T12:30:41.465Z,31.37
2022-09-01T12:33:44.737Z,31.84
2022-09-01T12:37:01.940Z,32.30
2022-09-01T12:40:04.579Z,32.37
2022-09-01T12:43:07.872Z,32.27
2022-09-01T12:46:10.814Z,32.32
2022-09-01T12:49:17.868Z,32.19
2022-09-01T12:52:26.206Z,32.24
2022-09-01T12:59:04.377Z,32.03
2022-09-01T13:02:45.986Z,32.10
2022-09-01T13:05:52.999Z,32.08
2022-09-01T13:08:56.725Z,31.93
2022-09-01T13:12:19.390Z,31.76
2022-09-01T13:15:21.976Z,31.65
2022-09-01T13:18:25.249Z,31.31
2022-09-01T13:21:28.806Z,30.80
2022-09-01T13:24:32.037Z,30.56
2022-09-01T13:27:34.665Z,30.31
2022-09-01T13:30:37.956Z,30.17
2022-09-01T13:37:03.129Z,29.91
2022-09-01T13:40:08.280Z,29.84
2022-09-01T13:43:11.835Z,29.83
2022-09-01T13:46:15.200Z,29.96
2022-09-01T13:52:42.382Z,29.78
2022-09-01T13:55:44.999Z,29.65
2022-09-01T13:58:48.766Z,29.39
2022-09-01T14:01:51.403Z,29.21
2022-09-01T14:04:53.985Z,29.08
2022-09-01T14:07:57.158Z,28.89
2022-09-01T14:11:00.077Z,28.72
2022-09-01T14:14:02.881Z,28.54
2022-09-01T14:17:05.653Z,28.45
2022-09-01T14:20:12.777Z,28.19
2022-09-01T14:23:15.417Z,28.01
2022-09-01T14:26:17.914Z,27.87
2022-09-01T14:29:20.638Z,27.77
2022-09-01T14:32:27.207Z,27.76
2022-09-01T14:35:33.127Z,27.64
2022-09-01T14:38:35.607Z,27.50
2022-09-01T14:41:38.181Z,27.49
2022-09-01T14:44:40.793Z,27.30
2022-09-01T14:47:44.962Z,27.28
2022-09-01T14:50:49.011Z,27.38
2022-09-01T14:53:52.626Z,27.40
2022-09-01T15:00:17.934Z,27.17
2022-09-01T15:03:22.777Z,27.12
2022-09-01T15:06:25.875Z,27.05
2022-09-01T15:09:28.319Z,26.99
2022-09-01T15:12:31.675Z,26.98
2022-09-01T15:15:34.196Z,26.82
2022-09-01T15:18:36.878Z,26.70
2022-09-01T15:21:40.583Z,26.65
2022-09-01T15:24:43.157Z,26.54
2022-09-01T15:27:46.200Z,26.44
2022-09-01T15:30:48.850Z,26.40
2022-09-01T15:33:51.838Z,26.17
2022-09-01T15:36:54.330Z,26.07
2022-09-01T15:39:56.777Z,25.97
2022-09-01T15:43:00.032Z,25.85
2022-09-01T15:46:04.306Z,25.75
2022-09-01T15:49:09.484Z,25.50
2022-09-01T15:52:11.888Z,25.33
2022-09-01T15:55:14.394Z,25.18
2022-09-01T15:58:19.475Z,25.07
2022-09-01T16:01:22.449Z,24.89
2022-09-01T16:04:27.754Z,24.77
2022-09-01T16:07:30.349Z,24.69
2022-09-01T16:10:35.105Z,24.60
2022-09-01T16:13:39.962Z,24.52
2022-09-01T16:16:45.573Z,24.30
2022-09-01T16:19:56.555Z,24.26
2022-09-01T16:23:29.772Z,24.16
2022-09-01T16:26:33.813Z,23.98
2022-09-01T16:29:45.182Z,23.99
2022-09-01T16:32:48.726Z,23.82
2022-09-01T16:35:58.513Z,23.73
2022-09-01T16:39:18.834Z,23.66
2022-09-01T16:42:28.032Z,23.60
2022-09-01T16:45:53.075Z,23.48
2022-09-01T16:49:28.069Z,23.42
2022-09-01T16:52:37.761Z,23.42
2022-09-01T16:55:46.730Z,23.43
2022-09-01T16:58:49.257Z,23.38
2022-09-01T17:01:58.030Z,23.26
2022-09-01T17:05:07.915Z,23.23
2022-09-01T17:08:29.739Z,23.19
2022-09-01T17:11:35.245Z,23.18
2022-09-01T17:14:41.667Z,23.16
2022-09-01T17:17:46.224Z,23.07
2022-09-01T17:20:55.654Z,23.01
2022-09-01T17:24:00.635Z,22.92
2022-09-01T17:27:07.774Z,22.91
2022-09-01T17:30:10.149Z,22.85
2022-09-01T17:33:18.351Z,22.81
2022-09-01T17:36:48.525Z,22.75
2022-09-01T17:40:00.498Z,22.68
2022-09-01T17:43:07.083Z,22.61
2022-09-01T17:46:42.324Z,22.53
2022-09-01T17:49:54.206Z,22.45
2022-09-01T17:53:00.127Z,22.38
2022-09-01T17:56:10.598Z,22.31
2022-09-01T17:59:13.276Z,22.23
2022-09-01T18:02:34.368Z,22.15
2022-09-01T18:05:40.243Z,22.10
2022-09-01T18:08:44.093Z,22.06
2022-09-01T18:11:59.904Z,21.99
2022-09-01T18:15:16.821Z,21.93
2022-09-01T18:18:25.449Z,21.90
2022-09-01T18:21:50.960Z,21.83
2022-09-01T18:25:00.101Z,21.77
2022-09-01T18:28:02.619Z,21.73
2022-09-01T18:31:22.890Z,21.67
2022-09-01T18:34:35.532Z,21.63
2022-09-01T18:37:55.882Z,21.58
2022-09-01T18:41:16.775Z,21.56
2022-09-01T18:44:22.347Z,21.52
2022-09-01T18:47:52.070Z,21.48
2022-09-01T18:50:57.933Z,21.45
2022-09-01T18:54:21.235Z,21.41
2022-09-01T18:57:40.095Z,21.39
2022-09-01T19:00:54.626Z,21.37
2022-09-01T19:04:09.483Z,21.32
2022-09-01T19:07:12.359Z,21.26
2022-09-01T19:10:40.231Z,21.22
2022-09-01T19:13:58.468Z,21.18
2022-09-01T19:17:04.048Z,21.18
2022-09-01T19:20:24.911Z,21.16
2022-09-01T19:23:27.606Z,21.12
2022-09-01T19:26:33.206Z,21.08
2022-09-01T19:29:47.662Z,21.07
2022-09-01T19:32:55.466Z,21.08
2022-09-01T19:36:03.405Z,21.07
2022-09-01T19:39:09.103Z,21.09
2022-09-01T19:42:26.495Z,21.04
2022-09-01T19:45:31.754Z,20.99
2022-09-01T19:48:43.833Z,20.98
2022-09-01T19:51:57.006Z,20.98
2022-09-01T19:55:03.682Z,20.90
2022-09-01T19:58:11.959Z,20.92
2022-09-01T20:01:18.034Z,20.88
2022-09-01T20:04:23.506Z,20.89
2022-09-01T20:07:33.143Z,20.83
2022-09-01T20:10:37.055Z,20.82
2022-09-01T20:13:39.782Z,20.81
2022-09-01T20:16:53.058Z,20.78
2022-09-01T20:20:00.265Z,20.75
2022-09-01T20:23:05.989Z,20.75
2022-09-01T20:26:19.467Z,20.77
2022-09-01T20:29:26.335Z,20.72
2022-09-01T20:32:52.164Z,20.70
2022-09-01T20:36:02.064Z,20.68
2022-09-01T20:39:43.211Z,20.65
2022-09-01T20:42:51.031Z,20.57
2022-09-01T20:45:53.781Z,20.54
2022-09-01T20:48:57.006Z,20.52
2022-09-01T20:52:12.655Z,20.49
2022-09-01T20:55:20.177Z,20.44
2022-09-01T20:58:25.780Z,20.39
2022-09-01T21:01:31.693Z,20.32
2022-09-01T21:04:42.752Z,20.28
2022-09-01T21:08:11.242Z,20.31
2022-09-01T21:11:22.191Z,20.30
2022-09-01T21:14:40.165Z,20.22
2022-09-01T21:18:01.663Z,20.17
2022-09-01T21:21:15.269Z,20.12
2022-09-01T21:24:17.764Z,20.07
2022-09-01T21:27:22.818Z,20.04
2022-09-01T21:30:26.004Z,19.99
2022-09-01T21:33:32.276Z,19.95
2022-09-01T21:36:34.787Z,19.92
2022-09-01T21:39:37.535Z,19.93
2022-09-01T21:42:41.614Z,19.98
2022-09-01T21:45:45.012Z,19.93
2022-09-01T21:48:47.550Z,19.90
2022-09-01T21:51:50.719Z,19.88
2022-09-01T21:54:53.650Z,19.85
2022-09-01T21:57:56.211Z,19.82
2022-09-01T22:00:58.799Z,19.82
2022-09-01T22:04:04.259Z,19.85
2022-09-01T22:07:09.135Z,19.91
2022-09-01T22:10:13.858Z,19.87
2022-09-01T22:13:16.373Z,19.87
2022-09-01T22:16:20.164Z,19.84
2022-09-01T22:19:22.696Z,19.87
2022-09-01T22:22:26.532Z,19.83
2022-09-01T22:25:30.330Z,19.77
2022-09-01T22:28:32.855Z,19.77
2022-09-01T22:31:37.651Z,19.84
2022-09-01T22:34:58.680Z,19.79
2022-09-01T22:38:01.087Z,19.68
2022-09-01T22:41:03.622Z,19.56
2022-09-01T22:44:06.461Z,19.54
2022-09-01T22:47:09.197Z,19.56
2022-09-01T22:50:12.024Z,19.56
2022-09-01T22:53:15.819Z,19.56
2022-09-01T22:56:24.220Z,19.55
2022-09-01T22:59:26.746Z,19.50
2022-09-01T23:02:30.255Z,19.52
2022-09-01T23:05:32.803Z,19.58
2022-09-01T23:08:35.594Z,19.50
2022-09-01T23:11:38.419Z,19.52
2022-09-01T23:14:40.839Z,19.40
2022-09-01T23:17:43.541Z,19.38
2022-09-01T23:20:45.956Z,19.33
2022-09-01T23:23:48.638Z,19.35
2022-09-01T23:27:00.893Z,19.30
2022-09-01T23:30:04.725Z,19.28
2022-09-01T23:33:07.483Z,19.28
2022-09-01T23:36:11.932Z,19.25
2022-09-01T23:39:14.620Z,19.33
2022-09-01T23:42:17.172Z,19.27
2022-09-01T23:45:20.364Z,19.21
2022-09-01T23:48:23.771Z,19.18
2022-09-01T23:51:26.231Z,19.12
2022-09-01T23:54:28.849Z,19.12
2022-09-01T23:57:31.441Z,19.14
